Santa Rosa, NM (88435)

7:55 AM MDT on April 27, 2015 (GMT -0600)
Tucumcari Municipal | | Change Station
CLOSE
Current Station
Airport
Location: Tucumcari,
Elevation: 4065 ft
Nearby Weather Stations

Elev 4065 ft 35.18 °N, 103.60 °W | Updated 1 hour ago

Rain
Rain
44 °F
Feels Like 36 °F
N
17
Wind Variable Wind from NNE
Gusts 30 mph

Today
High -- | Low -- °F
--% Chance of Precip.
Yesterday
High -- | Low -- °F
Precip. -- in
6:12 AM 7:40 PM
Waxing Gibbous, 65% visible
Pressure 29.88 in
Visibility 7.0 miles
Clouds Mostly Cloudy 1600 ft
Mostly Cloudy 2400 ft
Overcast 2900 ft
Windchill 36 °F
Dew Point 40 °F
Humidity 85%
Rainfall 0.76 in
Snow Depth Not available.
UV 0 out of 12
Pollen 4.10 out of 12
Air Quality Not available.
Flu Activity Local Activity
METAR KTCC 271253Z AUTO 02015G26KT 7SM RA BKN016 BKN024 OVC029 07/04 A2995 RMK AO2 PK WND 04030/1226 SLP116 P0012 T00670044

More Conditions Fewer Conditions

Pressure 29.88 in
Visibility 7.0 miles
Clouds Mostly Cloudy 1600 ft
Mostly Cloudy 2400 ft
Overcast 2900 ft
Windchill 36 °F
Dew Point 40 °F
Humidity 85%
Rainfall 0.76 in
Snow Depth Not available.
UV 0 out of 12
Pollen 4.10 out of 12
Air Quality Not available.
Flu Activity Local Activity
METAR KTCC 271253Z AUTO 02015G26KT 7SM RA BKN016 BKN024 OVC029 07/04 A2995 RMK AO2 PK WND 04030/1226 SLP116 P0012 T00670044

More Conditions Fewer Conditions

Nowcast | as of 6:59 am MDT on April 27, 2015

Through 9 am MDT...showers and areas of moderate to occasional heavy rain will continue across much of eastern New Mexico. Rainfall amounts will generally be a tenth of an inch or less...but an area of heavier rain between Santa Rosa...Tucumcari and Clovis may produce amounts up to one inch. Ponding of water on roadways and reduced visibilities in rain will make for less than ideal driving conditions. Motorists should exercise caution.

×

10-Day Weather Forecast

Almanac

Astronomy

Apr. 27, 2015 Rise Set
Actual Time
Civil Twilight
Nautical Twilight
Astronomical Twilight
Moon
Length of Visible Light
Length of Day
Tomorrow will be .
, % of the Moon is Illuminated

Today's Extremes

State Highs State Lows

Community

WunderPhotos

Upload Photos

1,817,309 photos uploaded!

WunderBlogs® & News

Nearby

Air Quality

  Air Quality AQ Index Pollutant
Not available.

Snow Depth

Station Depth Elevation

Earthquake Activity

City Distance Mag. Time & Date
Minimum magnitude displayed is 2.5.

Coastal Water Temperatures

Place Temperature

Stations

Nearby Weather Stations

Station Location Temp. Windchill Dew Point Humidity Wind Precip. Elev Updated Type